createdAt,value
2019-02-04T00:02:08.825Z,15.10
2019-02-04T00:04:42.254Z,9.70
2019-02-04T00:07:14.187Z,10.03
2019-02-04T00:09:45.314Z,18.43
2019-02-04T00:12:23.622Z,11.90
2019-02-04T00:15:03.080Z,11.30
2019-02-04T00:17:34.205Z,14.57
2019-02-04T00:20:05.332Z,16.77
2019-02-04T00:22:36.438Z,13.00
2019-02-04T00:25:06.923Z,10.73
2019-02-04T00:27:37.494Z,13.93
2019-02-04T00:30:08.770Z,12.60
2019-02-04T00:32:41.116Z,12.90
2019-02-04T00:35:12.052Z,17.13
2019-02-04T00:37:42.986Z,13.20
2019-02-04T00:40:15.812Z,12.17
2019-02-04T00:42:46.474Z,11.13
2019-02-04T00:45:20.877Z,12.63
2019-02-04T00:47:59.751Z,12.43
2019-02-04T00:50:39.969Z,20.87
2019-02-04T00:53:10.710Z,11.50
2019-02-04T00:55:41.139Z,11.70
2019-02-04T00:58:15.935Z,11.30
2019-02-04T01:00:46.882Z,12.87
2019-02-04T01:03:20.077Z,16.23
2019-02-04T01:05:55.226Z,11.47
2019-02-04T01:08:30.867Z,14.97
2019-02-04T01:10:59.397Z,13.73
2019-02-04T01:13:31.785Z,14.47
2019-02-04T01:16:05.112Z,14.03
2019-02-04T01:18:37.446Z,13.17
2019-02-04T01:21:14.371Z,13.37
2019-02-04T01:23:48.097Z,16.03
2019-02-04T01:26:29.755Z,20.43
2019-02-04T01:28:56.557Z,12.50
2019-02-04T01:31:29.392Z,18.37
2019-02-04T01:34:03.218Z,10.83
2019-02-04T01:36:33.814Z,10.20
2019-02-04T01:39:22.479Z,13.20
2019-02-04T01:41:54.977Z,12.70
2019-02-04T01:44:26.337Z,14.87
2019-02-04T01:46:57.336Z,16.83
2019-02-04T01:49:28.013Z,9.77
2019-02-04T01:51:58.842Z,12.37
2019-02-04T01:54:29.642Z,14.17
2019-02-04T01:57:00.831Z,10.87
2019-02-04T01:59:31.635Z,13.07
2019-02-04T02:02:02.217Z,12.93
2019-02-04T02:04:34.212Z,10.60
2019-02-04T02:07:08.329Z,11.80
2019-02-04T02:09:40.703Z,10.97
2019-02-04T02:12:13.615Z,10.80
2019-02-04T02:14:44.498Z,9.97
2019-02-04T02:17:25.658Z,12.47
2019-02-04T02:19:50.449Z,15.33
2019-02-04T02:22:21.521Z,13.80
2019-02-04T02:24:53.905Z,14.33
2019-02-04T02:27:24.252Z,8.80
2019-02-04T02:29:56.637Z,12.03
2019-02-04T02:32:28.991Z,12.93
2019-02-04T02:34:59.952Z,12.90
2019-02-04T02:37:36.919Z,10.73
2019-02-04T02:40:13.902Z,12.50
2019-02-04T02:42:43.167Z,12.10
2019-02-04T02:45:14.748Z,12.53
2019-02-04T02:47:45.676Z,10.23
2019-02-04T02:50:18.673Z,11.07
2019-02-04T02:52:49.456Z,13.37
2019-02-04T02:55:19.890Z,12.53
2019-02-04T02:57:50.227Z,12.63
2019-02-04T03:00:22.909Z,10.70
2019-02-04T03:02:53.415Z,8.87
2019-02-04T03:05:28.679Z,10.07
2019-02-04T03:07:59.548Z,10.50
2019-02-04T03:10:34.896Z,12.57
2019-02-04T03:13:05.976Z,9.80
2019-02-04T03:15:37.836Z,12.97
2019-02-04T03:18:09.301Z,18.17
2019-02-04T03:20:41.144Z,9.53
2019-02-04T03:23:12.995Z,10.47
2019-02-04T03:25:45.943Z,11.63
2019-02-04T03:28:17.239Z,10.70
2019-02-04T03:30:54.507Z,9.63
2019-02-04T03:33:27.880Z,8.87
2019-02-04T03:36:01.315Z,7.33
2019-02-04T03:38:34.335Z,13.27
2019-02-04T03:41:04.992Z,9.80
2019-02-04T03:43:36.963Z,11.90
2019-02-04T03:46:07.610Z,11.87
2019-02-04T03:48:37.950Z,9.80
2019-02-04T03:51:08.580Z,11.97
2019-02-04T03:53:41.322Z,15.17
2019-02-04T03:56:11.982Z,12.77
2019-02-04T03:58:42.810Z,10.70
2019-02-04T04:01:16.099Z,15.50
2019-02-04T04:03:46.806Z,15.70
2019-02-04T04:06:17.561Z,13.63
2019-02-04T04:08:53.507Z,14.20
2019-02-04T04:11:23.864Z,11.20
2019-02-04T04:13:54.856Z,13.80
2019-02-04T04:16:26.846Z,10.70
2019-02-04T04:18:57.310Z,11.87
2019-02-04T04:21:29.734Z,9.13
2019-02-04T04:24:00.433Z,10.80
2019-02-04T04:26:31.186Z,14.63
2019-02-04T04:29:06.232Z,13.23
2019-02-04T04:31:42.888Z,15.23
2019-02-04T04:34:14.875Z,13.87
2019-02-04T04:36:45.686Z,11.50
2019-02-04T04:39:18.830Z,14.83
2019-02-04T04:41:54.717Z,11.70
2019-02-04T04:44:25.987Z,21.03
2019-02-04T04:46:56.766Z,9.87
2019-02-04T04:49:29.025Z,12.10
2019-02-04T04:52:07.911Z,7.80
2019-02-04T04:54:41.726Z,10.40
2019-02-04T04:57:30.558Z,11.80
2019-02-04T05:00:06.103Z,10.03
2019-02-04T05:02:40.188Z,13.20
2019-02-04T05:05:13.613Z,10.13
2019-02-04T05:07:51.746Z,17.93
2019-02-04T05:10:19.986Z,14.17
2019-02-04T05:13:07.110Z,14.03
2019-02-04T05:15:41.096Z,17.83
2019-02-04T05:18:11.878Z,16.77
2019-02-04T05:20:44.630Z,20.17
2019-02-04T05:23:25.092Z,16.90
2019-02-04T05:25:54.495Z,14.97
2019-02-04T05:28:26.051Z,15.17
2019-02-04T05:31:05.487Z,16.50
2019-02-04T05:33:55.559Z,18.93
2019-02-04T05:39:20.922Z,16.03
2019-02-04T05:41:58.898Z,13.33
2019-02-04T05:44:34.378Z,13.60
2019-02-04T05:47:15.887Z,16.90
2019-02-04T05:50:01.810Z,13.33
2019-02-04T05:52:42.306Z,14.60
2019-02-04T05:55:15.474Z,12.23
2019-02-04T05:57:53.988Z,8.93
2019-02-04T06:00:53.087Z,10.00
2019-02-04T06:03:26.940Z,6.50
2019-02-04T06:06:01.955Z,12.90
2019-02-04T06:08:40.333Z,8.77
2019-02-04T06:11:14.064Z,9.03
2019-02-04T06:13:46.037Z,18.23
2019-02-04T06:16:16.707Z,14.00
2019-02-04T06:18:48.696Z,8.90
2019-02-04T06:21:20.616Z,9.07
2019-02-04T06:23:58.113Z,12.63
2019-02-04T06:29:43.249Z,12.23
2019-02-04T06:32:30.524Z,12.57
2019-02-04T06:35:26.401Z,10.07
2019-02-04T06:38:13.058Z,9.17
2019-02-04T06:40:49.686Z,11.93
2019-02-04T06:43:22.059Z,12.20
2019-02-04T06:45:56.474Z,10.67
2019-02-04T06:48:28.843Z,12.73
2019-02-04T06:50:59.948Z,16.10
2019-02-04T06:53:39.778Z,10.17
2019-02-04T06:56:17.869Z,14.60
2019-02-04T06:58:55.235Z,17.00
2019-02-04T07:01:29.788Z,22.40
2019-02-04T07:04:03.279Z,13.10
2019-02-04T07:06:33.602Z,12.17
2019-02-04T07:09:08.317Z,14.57
2019-02-04T07:11:40.266Z,15.10
2019-02-04T07:14:10.576Z,16.10
2019-02-04T07:16:48.797Z,13.87
2019-02-04T07:19:24.407Z,14.47
2019-02-04T07:21:54.774Z,21.60
2019-02-04T07:24:42.467Z,17.37
2019-02-04T07:27:07.816Z,14.37
2019-02-04T07:29:58.217Z,15.40
2019-02-04T07:32:30.908Z,13.07
2019-02-04T07:35:02.815Z,10.53
2019-02-04T07:37:40.660Z,10.63
2019-02-04T07:40:16.485Z,12.97
2019-02-04T07:42:49.078Z,13.07
2019-02-04T07:45:23.127Z,11.47
2019-02-04T07:47:58.046Z,14.33
2019-02-04T07:50:34.343Z,12.97
2019-02-04T07:53:11.415Z,12.90
2019-02-04T07:55:41.955Z,16.67
2019-02-04T07:58:22.385Z,25.60
2019-02-04T08:00:53.217Z,19.40
2019-02-04T08:03:28.003Z,19.83
2019-02-04T08:06:01.349Z,26.50
2019-02-04T08:08:36.936Z,31.20
2019-02-04T08:11:14.197Z,21.17
2019-02-04T08:13:45.068Z,26.03
2019-02-04T08:16:17.018Z,27.60
2019-02-04T08:18:49.244Z,21.93
2019-02-04T08:21:21.267Z,19.77
2019-02-04T08:23:51.718Z,14.73
2019-02-04T08:26:22.026Z,17.97
2019-02-04T08:28:55.591Z,17.83
2019-02-04T08:31:27.327Z,12.57
2019-02-04T08:34:01.068Z,17.17
2019-02-04T08:36:43.087Z,17.43
2019-02-04T08:39:07.340Z,15.07
2019-02-04T08:41:38.047Z,21.73
2019-02-04T08:44:09.317Z,17.53
2019-02-04T08:46:41.286Z,15.60
2019-02-04T08:49:11.925Z,20.03
2019-02-04T08:51:42.291Z,19.90
2019-02-04T08:54:15.703Z,18.17
2019-02-04T08:56:46.509Z,18.30
2019-02-04T08:59:18.338Z,20.23
2019-02-04T09:01:48.859Z,18.03
2019-02-04T09:04:19.199Z,17.87
2019-02-04T09:06:50.866Z,21.97
2019-02-04T09:09:24.354Z,17.27
2019-02-04T09:11:54.804Z,17.03
2019-02-04T09:14:28.024Z,23.63
2019-02-04T09:17:02.119Z,20.77
2019-02-04T09:19:34.816Z,18.10
2019-02-04T09:22:07.018Z,21.07
2019-02-04T09:24:42.487Z,18.57
2019-02-04T09:27:15.119Z,15.80
2019-02-04T09:29:46.017Z,22.97
2019-02-04T09:32:16.795Z,17.70
2019-02-04T09:34:47.730Z,18.33
2019-02-04T09:37:20.398Z,21.80
2019-02-04T09:39:51.038Z,18.17
2019-02-04T09:42:22.017Z,23.07
2019-02-04T09:45:01.631Z,24.63
2019-02-04T09:47:36.145Z,28.73
2019-02-04T09:50:07.620Z,23.10
2019-02-04T09:52:38.075Z,23.77
2019-02-04T09:55:13.432Z,27.47
2019-02-04T09:57:45.846Z,19.10
2019-02-04T10:00:23.631Z,16.93
2019-02-04T10:02:59.717Z,24.53
2019-02-04T10:05:30.129Z,18.57
2019-02-04T10:08:05.889Z,20.03
2019-02-04T10:10:40.093Z,20.07
2019-02-04T10:13:11.978Z,20.47
2019-02-04T10:15:48.958Z,23.90
2019-02-04T10:18:22.803Z,20.73
2019-02-04T10:20:53.150Z,19.80
2019-02-04T10:23:24.257Z,19.00
2019-02-04T10:25:54.959Z,19.80
2019-02-04T10:28:27.130Z,27.10
2019-02-04T10:30:58.749Z,19.00
2019-02-04T10:33:29.663Z,21.60
2019-02-04T10:36:01.929Z,18.53
2019-02-04T10:38:37.227Z,16.30
2019-02-04T10:41:09.538Z,16.03
2019-02-04T10:43:47.646Z,17.43
2019-02-04T10:46:21.100Z,14.93
2019-02-04T10:48:58.031Z,21.30
2019-02-04T10:51:36.327Z,14.13
2019-02-04T10:54:11.651Z,20.33
2019-02-04T10:56:44.066Z,17.60
2019-02-04T10:59:22.516Z,17.17
2019-02-04T11:01:55.223Z,24.77
2019-02-04T11:04:25.992Z,18.00
2019-02-04T11:06:58.489Z,18.33
2019-02-04T11:09:30.711Z,16.03
2019-02-04T11:12:07.139Z,24.27
2019-02-04T11:14:44.868Z,21.00
2019-02-04T11:17:18.406Z,25.33
2019-02-04T11:19:54.003Z,25.07
2019-02-04T11:22:27.916Z,23.20
2019-02-04T11:24:58.953Z,35.30
2019-02-04T11:27:35.576Z,21.30
2019-02-04T11:30:13.157Z,22.30
2019-02-04T11:33:07.718Z,24.33
2019-02-04T11:35:45.118Z,19.73
2019-02-04T11:38:17.445Z,27.63
2019-02-04T11:40:50.108Z,24.90
2019-02-04T11:43:26.103Z,23.10
2019-02-04T11:46:06.941Z,19.93
2019-02-04T11:48:39.553Z,20.70
2019-02-04T11:51:28.556Z,19.37
2019-02-04T11:53:59.155Z,23.23
2019-02-04T11:56:32.765Z,24.43
2019-02-04T11:59:06.447Z,19.33
2019-02-04T12:01:43.429Z,21.67
2019-02-04T12:04:14.295Z,22.63
2019-02-04T12:06:46.648Z,22.80
2019-02-04T12:09:20.206Z,22.20
2019-02-04T12:11:55.738Z,18.03
2019-02-04T12:14:31.585Z,19.33
2019-02-04T12:17:07.360Z,20.47
2019-02-04T12:19:38.928Z,21.37
2019-02-04T12:22:12.682Z,16.93
2019-02-04T12:24:44.760Z,21.93
2019-02-04T12:27:17.959Z,17.97
2019-02-04T12:29:51.784Z,21.33
2019-02-04T12:32:23.839Z,18.73
2019-02-04T12:34:54.564Z,16.63
2019-02-04T12:37:32.484Z,17.63
2019-02-04T12:40:03.371Z,21.03
2019-02-04T12:42:40.409Z,17.37
2019-02-04T12:45:19.635Z,19.50
2019-02-04T12:47:51.063Z,21.03
2019-02-04T12:50:25.336Z,17.40
2019-02-04T12:53:10.217Z,17.97
2019-02-04T12:55:43.077Z,16.43
2019-02-04T12:58:17.715Z,18.63
2019-02-04T13:00:52.337Z,26.40
2019-02-04T13:03:24.121Z,19.63
2019-02-04T13:06:01.961Z,19.43
2019-02-04T13:08:40.589Z,24.13
2019-02-04T13:11:15.792Z,18.10
2019-02-04T13:13:49.289Z,17.17
2019-02-04T13:16:21.802Z,25.67
2019-02-04T13:18:55.092Z,24.97
2019-02-04T13:21:28.338Z,29.60
2019-02-04T13:23:59.841Z,17.07
2019-02-04T13:26:50.618Z,23.73
2019-02-04T13:29:21.561Z,20.83
2019-02-04T13:31:56.042Z,16.83
2019-02-04T13:34:46.861Z,21.10
2019-02-04T13:37:19.586Z,21.27
2019-02-04T13:39:56.970Z,17.70
2019-02-04T13:42:36.131Z,19.47
2019-02-04T13:45:11.846Z,19.63
2019-02-04T13:47:47.278Z,20.90
2019-02-04T13:50:22.020Z,23.63
2019-02-04T13:52:53.761Z,24.43
2019-02-04T13:55:31.879Z,30.30
2019-02-04T13:58:02.317Z,18.47
2019-02-04T14:00:32.936Z,20.57
2019-02-04T14:03:08.774Z,24.03
2019-02-04T14:05:42.134Z,20.97
2019-02-04T14:08:18.247Z,19.93
2019-02-04T14:10:53.184Z,24.13
2019-02-04T14:13:28.201Z,24.80
2019-02-04T14:16:13.910Z,19.77
2019-02-04T14:18:55.900Z,24.50
2019-02-04T14:21:31.222Z,23.13
2019-02-04T14:24:06.127Z,29.43
2019-02-04T14:26:53.350Z,20.40
2019-02-04T14:29:25.893Z,21.17
2019-02-04T14:31:58.469Z,20.37
2019-02-04T14:34:29.591Z,17.23
2019-02-04T14:37:03.142Z,19.13
2019-02-04T14:39:37.711Z,22.97
2019-02-04T14:42:19.403Z,19.53
2019-02-04T14:45:00.469Z,24.93
2019-02-04T14:47:41.424Z,23.13
2019-02-04T14:50:18.439Z,21.27
2019-02-04T14:53:28.296Z,23.13
2019-02-04T14:56:24.103Z,40.60
2019-02-04T14:59:14.792Z,27.63
2019-02-04T15:02:21.817Z,20.13
2019-02-04T15:05:19.200Z,18.83
2019-02-04T15:08:32.871Z,22.93
2019-02-04T15:11:46.944Z,20.43
2019-02-04T15:14:55.270Z,19.17
2019-02-04T15:18:08.496Z,21.87
2019-02-04T15:21:15.225Z,20.50
2019-02-04T15:24:14.505Z,21.00
2019-02-04T15:27:23.666Z,23.53
2019-02-04T15:30:04.300Z,22.00
2019-02-04T15:33:09.947Z,30.47
2019-02-04T15:36:32.028Z,26.50
2019-02-04T15:39:43.738Z,21.83
2019-02-04T15:43:17.036Z,26.23
2019-02-04T15:46:12.269Z,31.87
2019-02-04T15:49:27.675Z,25.10
2019-02-04T15:52:17.489Z,27.77
2019-02-04T15:54:48.482Z,27.93
2019-02-04T15:57:25.768Z,29.30
2019-02-04T16:00:01.192Z,26.60
2019-02-04T16:02:39.080Z,27.07
2019-02-04T16:05:25.864Z,27.77
2019-02-04T16:09:04.623Z,32.33
2019-02-04T16:10:50.981Z,32.27
2019-02-04T16:13:24.915Z,31.13
2019-02-04T16:16:48.309Z,35.17
2019-02-04T16:19:23.116Z,30.17
2019-02-04T16:21:57.356Z,34.83
2019-02-04T16:24:36.284Z,34.37
2019-02-04T16:27:09.183Z,36.57
2019-02-04T16:29:39.651Z,36.17
2019-02-04T16:32:16.447Z,29.37
2019-02-04T16:34:47.251Z,39.80
2019-02-04T16:37:18.243Z,28.30
2019-02-04T16:39:53.154Z,32.97
2019-02-04T16:42:24.120Z,37.40
2019-02-04T16:45:24.933Z,27.87
2019-02-04T16:48:10.009Z,33.37
2019-02-04T16:50:58.889Z,35.43
2019-02-04T16:53:28.290Z,39.43
2019-02-04T16:56:00.448Z,28.67
2019-02-04T17:01:04.386Z,38.13
2019-02-04T17:03:41.872Z,34.83
2019-02-04T17:06:17.210Z,36.27
2019-02-04T17:09:07.364Z,38.97
2019-02-04T17:11:38.144Z,39.87
2019-02-04T17:14:11.346Z,31.97
2019-02-04T17:16:46.773Z,41.90
2019-02-04T17:19:19.249Z,33.10
2019-02-04T17:21:55.409Z,36.43
2019-02-04T17:24:26.293Z,39.63
2019-02-04T17:27:28.898Z,38.10
2019-02-04T17:30:20.002Z,36.30
2019-02-04T17:33:29.774Z,33.40
2019-02-04T17:36:01.154Z,31.10
2019-02-04T17:38:51.111Z,29.67
2019-02-04T17:41:20.995Z,30.37
2019-02-04T17:44:33.688Z,31.27
2019-02-04T17:47:08.364Z,27.93
2019-02-04T17:49:57.631Z,25.80
2019-02-04T17:52:25.551Z,29.00
2019-02-04T17:55:06.990Z,30.13
2019-02-04T17:57:52.104Z,32.33
2019-02-04T18:00:50.374Z,28.30
2019-02-04T18:03:36.446Z,29.47
2019-02-04T18:06:09.911Z,31.10
2019-02-04T18:08:48.759Z,27.30
2019-02-04T18:11:29.114Z,32.13
2019-02-04T18:14:11.874Z,26.13
2019-02-04T18:16:49.026Z,20.17
2019-02-04T18:20:23.662Z,24.10
2019-02-04T18:23:05.697Z,22.03
2019-02-04T18:25:44.544Z,24.40
2019-02-04T18:28:20.205Z,24.73
2019-02-04T18:30:58.844Z,25.63
2019-02-04T18:33:41.516Z,26.83
2019-02-04T18:36:12.050Z,26.30
2019-02-04T18:38:47.585Z,27.50
2019-02-04T18:41:21.442Z,22.07
2019-02-04T18:43:52.345Z,28.27
2019-02-04T18:46:31.815Z,25.43
2019-02-04T18:49:02.329Z,27.30
2019-02-04T18:52:02.652Z,27.53
2019-02-04T18:54:18.919Z,34.73
2019-02-04T18:56:52.077Z,29.83
2019-02-04T18:59:31.107Z,32.03
2019-02-04T19:02:01.993Z,27.67
2019-02-04T19:04:34.604Z,22.23
2019-02-04T19:07:09.180Z,24.37
2019-02-04T19:09:54.646Z,24.17
2019-02-04T19:12:33.564Z,23.03
2019-02-04T19:15:19.628Z,27.47
2019-02-04T19:18:02.812Z,20.27
2019-02-04T19:20:41.231Z,20.90
2019-02-04T19:23:23.011Z,19.60
2019-02-04T19:25:55.871Z,24.60
2019-02-04T19:28:37.541Z,31.33
2019-02-04T19:31:16.578Z,31.00
2019-02-04T19:33:51.035Z,25.23
2019-02-04T19:36:28.554Z,26.60
2019-02-04T19:38:59.869Z,28.57
2019-02-04T19:41:39.921Z,27.37
2019-02-04T19:44:17.720Z,29.07
2019-02-04T19:46:48.750Z,28.70
2019-02-04T19:49:19.511Z,30.80
2019-02-04T19:51:55.278Z,22.97
2019-02-04T19:54:30.463Z,26.90
2019-02-04T19:57:04.126Z,31.30
2019-02-04T19:59:40.032Z,27.80
2019-02-04T20:02:14.016Z,29.13
2019-02-04T20:04:45.083Z,34.03
2019-02-04T20:07:18.258Z,28.90
2019-02-04T20:09:48.896Z,25.50
2019-02-04T20:12:19.688Z,28.20
2019-02-04T20:14:50.419Z,26.00
2019-02-04T20:17:23.403Z,26.03
2019-02-04T20:19:58.893Z,25.67
2019-02-04T20:22:33.741Z,23.40
2019-02-04T20:25:12.063Z,25.23
2019-02-04T20:27:49.074Z,30.93
2019-02-04T20:30:22.565Z,21.60
2019-02-04T20:32:58.617Z,25.47
